createdAt,value
2023-02-03T00:02:16.636Z,3.63
2023-02-03T00:04:44.506Z,3.20
2023-02-03T00:07:12.727Z,4.75
2023-02-03T00:09:40.667Z,3.90
2023-02-03T00:12:10.097Z,6.47
2023-02-03T00:14:38.580Z,6.80
2023-02-03T00:17:06.562Z,3.38
2023-02-03T00:19:34.424Z,4.70
2023-02-03T00:22:02.260Z,4.15
2023-02-03T00:24:30.094Z,2.88
2023-02-03T00:26:57.921Z,4.13
2023-02-03T00:29:27.286Z,3.65
2023-02-03T00:31:55.453Z,5.25
2023-02-03T00:34:23.598Z,3.70
2023-02-03T00:36:51.555Z,4.90
2023-02-03T00:39:19.432Z,6.38
2023-02-03T00:41:47.860Z,3.45
2023-02-03T00:44:15.741Z,3.20
2023-02-03T00:46:44.936Z,4.80
2023-02-03T00:49:12.857Z,7.15
2023-02-03T00:51:40.707Z,1.63
2023-02-03T00:54:08.738Z,3.55
2023-02-03T00:56:36.662Z,2.80
2023-02-03T00:59:04.537Z,4.60
2023-02-03T01:01:32.592Z,2.83
2023-02-03T01:04:01.819Z,4.38
2023-02-03T01:06:29.709Z,2.38
2023-02-03T01:08:57.591Z,3.78
2023-02-03T01:11:27.084Z,2.95
2023-02-03T01:13:55.295Z,3.03
2023-02-03T01:16:24.071Z,3.00
2023-02-03T01:18:52.384Z,3.08
2023-02-03T01:21:23.984Z,2.28
2023-02-03T01:23:51.978Z,4.78
2023-02-03T01:26:21.054Z,3.72
2023-02-03T01:28:52.155Z,2.28
2023-02-03T01:31:21.746Z,2.58
2023-02-03T01:33:50.106Z,2.67
2023-02-03T01:36:18.609Z,2.45
2023-02-03T01:38:47.827Z,2.83
2023-02-03T01:41:16.732Z,3.25
2023-02-03T01:43:47.206Z,2.97
2023-02-03T01:46:24.090Z,3.83
2023-02-03T01:48:52.156Z,2.95
2023-02-03T01:51:20.115Z,3.05
2023-02-03T01:53:49.312Z,2.35
2023-02-03T01:56:17.159Z,3.17
2023-02-03T01:58:45.041Z,1.90
2023-02-03T02:01:13.776Z,2.55
2023-02-03T02:03:42.739Z,2.03
2023-02-03T02:06:11.521Z,2.13
2023-02-03T02:08:42.293Z,3.03
2023-02-03T02:11:11.518Z,2.80
2023-02-03T02:13:42.109Z,2.65
2023-02-03T02:16:12.830Z,2.47
2023-02-03T02:18:57.539Z,2.90
2023-02-03T02:21:53.033Z,2.95
2023-02-03T02:25:00.043Z,4.38
2023-02-03T02:27:37.785Z,3.00
2023-02-03T02:30:41.667Z,3.30
2023-02-03T02:33:15.752Z,3.20
2023-02-03T02:35:51.944Z,2.95
2023-02-03T02:38:26.956Z,3.20
2023-02-03T02:40:57.611Z,2.38
2023-02-03T02:43:27.707Z,3.42
2023-02-03T02:45:59.909Z,2.38
2023-02-03T02:48:31.161Z,2.58
2023-02-03T02:50:59.185Z,2.65
2023-02-03T02:53:28.089Z,1.98
2023-02-03T02:55:57.403Z,2.60
2023-02-03T02:58:25.806Z,2.38
2023-02-03T03:00:55.628Z,2.60
2023-02-03T03:03:24.295Z,4.60
2023-02-03T03:05:54.845Z,2.88
2023-02-03T03:08:28.892Z,2.60
2023-02-03T03:10:57.376Z,2.08
2023-02-03T03:13:28.953Z,2.30
2023-02-03T03:15:57.207Z,2.10
2023-02-03T03:18:26.483Z,2.40
2023-02-03T03:20:56.967Z,2.30
2023-02-03T03:23:27.648Z,4.38
2023-02-03T03:25:58.544Z,3.17
2023-02-03T03:28:28.867Z,3.65
2023-02-03T03:30:56.869Z,2.55
2023-02-03T03:33:24.926Z,2.72
2023-02-03T03:35:57.513Z,2.65
2023-02-03T03:38:31.934Z,2.55
2023-02-03T03:41:02.762Z,1.92
2023-02-03T03:43:31.450Z,2.42
2023-02-03T03:46:00.191Z,2.42
2023-02-03T03:48:29.404Z,2.55
2023-02-03T03:51:01.244Z,1.70
2023-02-03T03:53:29.226Z,2.55
2023-02-03T03:55:57.077Z,2.13
2023-02-03T03:58:26.825Z,2.55
2023-02-03T04:00:55.445Z,2.38
2023-02-03T04:03:24.420Z,1.60
2023-02-03T04:05:52.500Z,1.70
2023-02-03T04:08:21.710Z,1.95
2023-02-03T04:10:49.536Z,2.50
2023-02-03T04:13:20.080Z,2.45
2023-02-03T04:15:48.135Z,2.15
2023-02-03T04:18:16.625Z,3.63
2023-02-03T04:20:44.597Z,1.55
2023-02-03T04:23:12.479Z,2.08
2023-02-03T04:25:41.691Z,2.45
2023-02-03T04:28:09.598Z,3.47
2023-02-03T04:30:37.533Z,2.42
2023-02-03T04:33:05.450Z,3.33
2023-02-03T04:35:33.448Z,2.08
2023-02-03T04:38:01.293Z,2.00
2023-02-03T04:40:29.339Z,2.17
2023-02-03T04:42:58.727Z,2.05
2023-02-03T04:45:26.644Z,1.40
2023-02-03T04:47:54.862Z,1.90
2023-02-03T04:50:22.731Z,2.50
2023-02-03T04:52:50.562Z,2.45
2023-02-03T04:55:18.555Z,1.83
2023-02-03T04:57:46.432Z,2.08
2023-02-03T05:00:16.600Z,2.40
2023-02-03T05:02:44.434Z,1.63
2023-02-03T05:05:12.296Z,1.55
2023-02-03T05:07:40.165Z,2.05
2023-02-03T05:10:08.750Z,3.05
2023-02-03T05:12:36.624Z,1.50
2023-02-03T05:15:04.766Z,2.50
2023-02-03T05:17:38.756Z,1.70
2023-02-03T05:20:07.581Z,1.67
2023-02-03T05:22:36.277Z,2.13
2023-02-03T05:25:04.393Z,2.17
2023-02-03T05:27:32.307Z,1.83
2023-02-03T05:30:00.198Z,2.80
2023-02-03T05:32:28.060Z,2.50
2023-02-03T05:34:57.234Z,5.45
2023-02-03T05:37:25.091Z,2.20
2023-02-03T05:39:52.971Z,2.33
2023-02-03T05:42:19.924Z,2.75
2023-02-03T05:44:47.840Z,3.15
2023-02-03T05:47:15.702Z,2.25
2023-02-03T05:49:43.628Z,2.72
2023-02-03T05:52:12.849Z,2.55
2023-02-03T05:54:40.697Z,2.80
2023-02-03T05:57:08.607Z,2.40
2023-02-03T05:59:36.494Z,2.17
2023-02-03T06:02:04.462Z,1.75
2023-02-03T06:04:32.323Z,1.90
2023-02-03T06:07:00.286Z,3.33
2023-02-03T06:09:29.613Z,2.50
2023-02-03T06:11:57.546Z,1.55
2023-02-03T06:14:25.415Z,2.45
2023-02-03T06:16:53.397Z,2.10
2023-02-03T06:19:21.472Z,3.60
2023-02-03T06:21:49.301Z,3.20
2023-02-03T06:24:17.165Z,11.82
2023-02-03T06:26:46.427Z,47.03
2023-02-03T06:29:14.255Z,69.57
2023-02-03T06:31:42.290Z,39.42
2023-02-03T06:34:10.300Z,52.83
2023-02-03T06:36:38.163Z,55.00
2023-02-03T06:39:06.019Z,41.17
2023-02-03T06:41:34.018Z,33.42
2023-02-03T06:44:03.360Z,57.75
2023-02-03T06:46:31.481Z,58.25
2023-02-03T06:48:59.511Z,53.67
2023-02-03T06:51:27.588Z,62.60
2023-02-03T06:53:55.471Z,60.90
2023-02-03T06:56:23.350Z,62.22
2023-02-03T06:58:51.241Z,47.35
2023-02-03T07:01:20.494Z,42.97
2023-02-03T07:03:48.495Z,46.97
2023-02-03T07:06:16.351Z,62.65
2023-02-03T07:08:44.232Z,56.97
2023-02-03T07:11:12.144Z,55.80
2023-02-03T07:13:39.976Z,38.33
2023-02-03T07:16:08.343Z,49.88
2023-02-03T07:18:47.771Z,44.53
2023-02-03T07:21:16.435Z,42.20
2023-02-03T07:23:44.364Z,36.10
2023-02-03T07:26:12.248Z,40.83
2023-02-03T07:28:40.117Z,28.73
2023-02-03T07:31:08.224Z,29.70
2023-02-03T07:33:37.563Z,28.58
2023-02-03T07:36:06.284Z,23.67
2023-02-03T07:38:34.214Z,26.55
2023-02-03T07:41:02.093Z,32.95
2023-02-03T07:43:30.181Z,27.33
2023-02-03T07:45:58.088Z,24.92
2023-02-03T07:48:26.221Z,21.75
2023-02-03T07:50:55.541Z,25.80
2023-02-03T07:53:23.692Z,25.23
2023-02-03T07:55:51.601Z,22.35
2023-02-03T07:58:19.514Z,24.98
2023-02-03T08:00:47.533Z,21.77
2023-02-03T08:03:15.446Z,24.85
2023-02-03T08:05:43.304Z,21.50
2023-02-03T08:08:12.871Z,21.30
2023-02-03T08:10:40.896Z,19.98
2023-02-03T08:13:08.908Z,22.48
2023-02-03T08:15:37.018Z,26.58
2023-02-03T08:18:05.145Z,15.45
2023-02-03T08:20:33.382Z,20.35
2023-02-03T08:23:01.255Z,19.20
2023-02-03T08:25:30.617Z,17.98
2023-02-03T08:27:58.511Z,15.18
2023-02-03T08:30:26.823Z,18.52
2023-02-03T08:32:55.058Z,20.80
2023-02-03T08:35:23.051Z,14.98
2023-02-03T08:37:51.217Z,15.40
2023-02-03T08:40:19.221Z,18.08
2023-02-03T08:42:48.449Z,14.68
2023-02-03T08:45:16.597Z,17.90
2023-02-03T08:47:44.547Z,47.05
2023-02-03T08:50:13.524Z,60.95
2023-02-03T08:52:41.528Z,60.60
2023-02-03T08:55:09.712Z,81.95
2023-02-03T08:57:37.652Z,57.97
2023-02-03T09:00:08.203Z,50.75
2023-02-03T09:02:36.144Z,61.97
2023-02-03T09:05:04.335Z,49.72
2023-02-03T09:07:32.252Z,56.60
2023-02-03T09:10:00.144Z,44.25
2023-02-03T09:12:28.002Z,47.53
2023-02-03T09:14:55.825Z,44.55
2023-02-03T09:17:25.651Z,43.83
2023-02-03T09:19:53.634Z,44.47
2023-02-03T09:22:21.659Z,41.83
2023-02-03T09:24:51.336Z,35.85
2023-02-03T09:27:19.252Z,40.13
2023-02-03T09:29:47.095Z,39.13
2023-02-03T09:32:15.785Z,35.05
2023-02-03T09:34:45.144Z,33.08
2023-02-03T09:37:13.087Z,29.63
2023-02-03T09:39:40.933Z,34.53
2023-02-03T09:42:28.678Z,26.80
2023-02-03T09:45:01.915Z,28.55
2023-02-03T09:47:30.543Z,29.63
2023-02-03T09:50:01.157Z,26.17
2023-02-03T09:52:29.886Z,29.95
2023-02-03T09:54:59.504Z,27.30
2023-02-03T09:57:28.361Z,28.23
2023-02-03T09:59:58.274Z,30.40
2023-02-03T10:02:36.330Z,26.73
2023-02-03T10:05:12.388Z,26.98
2023-02-03T10:07:43.374Z,24.45
2023-02-03T10:10:14.937Z,24.05
2023-02-03T10:12:58.229Z,18.83
2023-02-03T10:16:01.567Z,19.52
2023-02-03T10:18:30.624Z,24.45
2023-02-03T10:21:01.031Z,20.08
2023-02-03T10:23:30.786Z,21.65
2023-02-03T10:25:59.085Z,22.00
2023-02-03T10:28:28.895Z,18.65
2023-02-03T10:30:57.692Z,23.13
2023-02-03T10:33:26.835Z,17.08
2023-02-03T10:35:56.381Z,16.55
2023-02-03T10:38:33.670Z,17.30
2023-02-03T10:41:01.648Z,17.98
2023-02-03T10:43:47.541Z,15.45
2023-02-03T10:46:15.534Z,16.65
2023-02-03T10:48:43.455Z,17.42
2023-02-03T10:51:16.539Z,13.82
2023-02-03T10:53:46.749Z,15.88
2023-02-03T10:56:15.252Z,15.48
2023-02-03T10:58:48.356Z,12.60
2023-02-03T11:01:17.085Z,14.32
2023-02-03T11:03:46.209Z,13.80
2023-02-03T11:06:15.257Z,16.60
2023-02-03T11:08:45.477Z,13.07
2023-02-03T11:11:15.128Z,10.98
2023-02-03T11:13:43.071Z,12.73
2023-02-03T11:16:14.343Z,14.88
2023-02-03T11:18:52.449Z,11.73
2023-02-03T11:21:21.773Z,12.20
2023-02-03T11:24:18.571Z,14.43
2023-02-03T11:26:47.949Z,12.70
2023-02-03T11:29:17.916Z,14.07
2023-02-03T11:31:48.384Z,11.88
2023-02-03T11:34:17.747Z,12.77
2023-02-03T11:36:45.594Z,10.98
2023-02-03T11:39:27.025Z,10.68
2023-02-03T11:41:55.251Z,11.65
2023-02-03T11:44:26.069Z,13.23
2023-02-03T11:46:56.347Z,9.98
2023-02-03T11:50:02.836Z,11.07
2023-02-03T11:53:02.006Z,11.77
2023-02-03T11:55:42.288Z,9.55
2023-02-03T11:58:24.223Z,9.93
2023-02-03T12:00:55.827Z,13.00
2023-02-03T12:04:10.092Z,10.60
2023-02-03T12:06:48.348Z,9.90
2023-02-03T12:09:23.259Z,10.95
2023-02-03T12:12:19.773Z,10.32
2023-02-03T12:14:53.595Z,9.10
2023-02-03T12:17:42.436Z,8.88
2023-02-03T12:20:25.555Z,8.75
2023-02-03T12:22:57.645Z,9.68
2023-02-03T12:25:33.991Z,10.88
2023-02-03T12:28:07.967Z,11.27
2023-02-03T12:30:38.966Z,6.13
2023-02-03T12:33:12.762Z,6.40
2023-02-03T12:35:42.981Z,7.38
2023-02-03T12:38:13.690Z,8.23
2023-02-03T12:40:42.981Z,7.47
2023-02-03T12:43:21.399Z,7.15
2023-02-03T12:45:53.937Z,9.68
2023-02-03T12:48:23.431Z,7.68
2023-02-03T12:50:52.327Z,10.40
2023-02-03T12:53:22.037Z,8.90
2023-02-03T12:55:55.215Z,7.10
2023-02-03T12:58:25.760Z,6.68
2023-02-03T13:00:57.068Z,7.38
2023-02-03T13:03:28.395Z,6.88
2023-02-03T13:06:00.292Z,10.52
2023-02-03T13:08:31.357Z,6.60
2023-02-03T13:11:04.855Z,5.75
2023-02-03T13:13:36.038Z,6.45
2023-02-03T13:16:04.308Z,9.80
2023-02-03T13:18:33.644Z,6.10
2023-02-03T13:21:01.579Z,8.43
2023-02-03T13:23:29.438Z,7.78
2023-02-03T13:26:21.740Z,6.65
2023-02-03T13:29:02.957Z,7.43
2023-02-03T13:31:38.298Z,7.03
2023-02-03T13:34:30.925Z,7.22
2023-02-03T13:37:13.536Z,7.35
2023-02-03T13:39:48.218Z,5.30
2023-02-03T13:42:22.491Z,6.05
2023-02-03T13:44:53.421Z,8.60
2023-02-03T13:47:23.827Z,8.13
2023-02-03T13:49:53.655Z,6.40
2023-02-03T13:52:29.496Z,7.28
2023-02-03T13:54:57.432Z,6.18
2023-02-03T13:57:28.518Z,7.38
2023-02-03T13:59:57.783Z,5.72
2023-02-03T14:02:50.471Z,7.47
2023-02-03T14:05:40.934Z,9.40
2023-02-03T14:08:52.892Z,6.07
2023-02-03T14:11:40.445Z,7.10
2023-02-03T14:14:45.694Z,7.22
2023-02-03T14:17:51.309Z,6.40
2023-02-03T14:20:40.267Z,5.78
2023-02-03T14:23:10.130Z,5.07
2023-02-03T14:25:40.606Z,7.43
2023-02-03T14:28:10.107Z,7.05
2023-02-03T14:31:08.106Z,6.05
2023-02-03T14:34:07.762Z,5.45
2023-02-03T14:36:40.289Z,8.18
2023-02-03T14:39:55.294Z,6.72
2023-02-03T14:42:47.373Z,10.10
2023-02-03T14:45:22.690Z,8.93
2023-02-03T14:47:59.664Z,6.85
2023-02-03T14:50:35.807Z,11.88
2023-02-03T14:53:31.907Z,5.93
2023-02-03T14:56:08.961Z,6.30
2023-02-03T14:58:42.979Z,7.85
2023-02-03T15:01:26.224Z,6.45
2023-02-03T15:04:22.044Z,7.93
2023-02-03T15:06:51.309Z,6.07
2023-02-03T15:09:24.485Z,6.35
2023-02-03T15:11:52.421Z,5.75
2023-02-03T15:14:22.576Z,5.50
2023-02-03T15:16:55.317Z,5.15
2023-02-03T15:19:24.953Z,4.35
2023-02-03T15:21:52.921Z,5.65
2023-02-03T15:24:24.169Z,5.72
2023-02-03T15:26:53.169Z,7.53
2023-02-03T15:29:24.880Z,4.38
2023-02-03T15:31:56.252Z,7.45
2023-02-03T15:34:27.667Z,7.38
2023-02-03T15:36:56.893Z,6.35
2023-02-03T15:39:39.393Z,5.60
2023-02-03T15:42:09.731Z,5.30
2023-02-03T15:44:40.431Z,5.07
2023-02-03T15:47:16.262Z,8.13
2023-02-03T15:49:44.357Z,8.60
2023-02-03T15:52:13.780Z,5.78
2023-02-03T15:54:45.658Z,5.63
2023-02-03T15:57:17.251Z,5.03
2023-02-03T15:59:46.867Z,7.35
2023-02-03T16:02:17.253Z,7.43
2023-02-03T16:04:45.250Z,7.95
2023-02-03T16:07:17.240Z,6.72
2023-02-03T16:09:46.729Z,5.60
2023-02-03T16:12:19.982Z,5.47
2023-02-03T16:14:48.201Z,5.85
2023-02-03T16:17:27.407Z,6.85
2023-02-03T16:20:20.417Z,10.23
2023-02-03T16:23:00.211Z,7.20
2023-02-03T16:25:32.151Z,7.45
2023-02-03T16:28:18.569Z,6.53
2023-02-03T16:31:12.447Z,8.65
2023-02-03T16:33:57.907Z,7.40
2023-02-03T16:36:43.475Z,5.30
2023-02-03T16:39:30.143Z,7.22
2023-02-03T16:42:19.674Z,5.82
2023-02-03T16:45:05.077Z,7.72
2023-02-03T16:47:50.984Z,7.65
2023-02-03T16:50:38.981Z,4.57
2023-02-03T16:53:08.884Z,5.35
2023-02-03T16:55:36.942Z,7.47
2023-02-03T16:58:06.189Z,7.03
2023-02-03T17:00:34.186Z,6.40
2023-02-03T17:03:04.761Z,7.57
2023-02-03T17:05:32.894Z,5.50
2023-02-03T17:08:00.938Z,9.25
2023-02-03T17:10:28.861Z,7.82
2023-02-03T17:12:56.809Z,6.72
2023-02-03T17:15:26.126Z,8.30
2023-02-03T17:17:54.012Z,5.47
2023-02-03T17:20:21.911Z,4.47
2023-02-03T17:22:51.737Z,6.93
2023-02-03T17:25:19.692Z,7.88
2023-02-03T17:27:47.878Z,6.00
2023-02-03T17:30:15.975Z,6.85
2023-02-03T17:32:45.187Z,6.10
2023-02-03T17:35:13.149Z,7.28
2023-02-03T17:37:41.207Z,9.32
2023-02-03T17:54:04.790Z,4.82
2023-02-03T17:56:32.973Z,8.52
2023-02-03T17:59:01.701Z,6.65
2023-02-03T18:01:29.677Z,4.72
2023-02-03T18:03:59.835Z,8.13
2023-02-03T18:06:28.369Z,6.93
2023-02-03T18:09:01.054Z,9.88
2023-02-03T18:11:29.148Z,5.35
2023-02-03T18:13:57.259Z,8.63
2023-02-03T18:16:26.707Z,5.15
2023-02-03T18:18:54.810Z,7.38
2023-02-03T18:21:25.055Z,4.82
2023-02-03T18:23:56.993Z,5.88
2023-02-03T18:26:25.111Z,5.78
2023-02-03T18:28:53.778Z,6.55
2023-02-03T18:31:21.786Z,7.05
2023-02-03T18:33:49.654Z,6.88
2023-02-03T18:36:18.105Z,4.80
2023-02-03T18:38:47.492Z,6.18
2023-02-03T18:41:16.834Z,7.47
2023-02-03T18:43:44.931Z,8.93
2023-02-03T18:46:15.149Z,7.78
2023-02-03T18:48:43.233Z,5.88
2023-02-03T18:51:11.613Z,5.65
2023-02-03T18:53:39.584Z,5.75
2023-02-03T18:56:10.071Z,7.00
2023-02-03T18:58:38.220Z,6.55
2023-02-03T19:01:06.681Z,5.43
2023-02-03T19:03:34.892Z,5.68
2023-02-03T19:06:02.831Z,7.53
2023-02-03T19:08:31.062Z,6.85
2023-02-03T19:10:59.138Z,5.38
2023-02-03T19:13:28.393Z,8.43
2023-02-03T19:15:56.338Z,7.07
2023-02-03T19:18:24.251Z,7.32
2023-02-03T19:20:52.316Z,5.47
2023-02-03T19:23:20.210Z,7.82
2023-02-03T19:25:53.322Z,5.72
2023-02-03T19:28:30.435Z,5.65
2023-02-03T19:31:08.397Z,5.40
2023-02-03T19:33:36.761Z,5.85
2023-02-03T19:36:05.091Z,5.95
2023-02-03T19:38:32.993Z,6.15
2023-02-03T19:41:01.500Z,5.35
2023-02-03T19:43:29.646Z,6.68
2023-02-03T19:45:57.732Z,5.47
2023-02-03T19:48:27.193Z,7.80
2023-02-03T19:50:55.310Z,4.72
2023-02-03T19:53:24.202Z,6.15
2023-02-03T19:55:52.152Z,5.60
2023-02-03T19:58:20.058Z,6.40
2023-02-03T20:00:47.991Z,5.40
2023-02-03T20:03:17.782Z,7.20
2023-02-03T20:05:47.616Z,7.35
2023-02-03T20:08:16.669Z,5.35
2023-02-03T20:10:45.568Z,8.32
2023-02-03T20:13:14.190Z,5.50
2023-02-03T20:15:42.215Z,5.65
2023-02-03T20:18:10.170Z,9.45
2023-02-03T20:20:38.251Z,6.30
2023-02-03T20:23:07.479Z,7.82
2023-02-03T20:25:35.333Z,7.25
2023-02-03T20:28:04.516Z,8.70
2023-02-03T20:30:32.837Z,5.82
2023-02-03T20:33:00.857Z,6.75
2023-02-03T20:35:29.099Z,6.40
2023-02-03T20:37:57.343Z,5.70
2023-02-03T20:40:29.420Z,7.30
2023-02-03T20:42:57.759Z,6.93
2023-02-03T20:45:25.815Z,7.45
2023-02-03T20:47:53.880Z,8.90
2023-02-03T20:50:28.943Z,10.45
2023-02-03T20:52:59.942Z,11.82
2023-02-03T20:55:29.597Z,10.50
2023-02-03T20:57:57.527Z,13.23
2023-02-03T21:00:26.686Z,9.57
2023-02-03T21:03:11.985Z,6.95
2023-02-03T21:05:42.549Z,14.00
2023-02-03T21:08:14.132Z,10.02
2023-02-03T21:10:43.586Z,11.20
2023-02-03T21:13:39.503Z,10.20
2023-02-03T21:16:17.567Z,8.57
2023-02-03T21:18:48.079Z,10.98
2023-02-03T21:21:16.358Z,7.22
2023-02-03T21:23:47.348Z,7.47
2023-02-03T21:26:21.006Z,9.80
2023-02-03T21:28:49.990Z,9.30
2023-02-03T21:31:23.983Z,7.50
2023-02-03T21:33:52.327Z,20.25
2023-02-03T21:36:21.444Z,9.00
2023-02-03T21:38:50.205Z,5.95
2023-02-03T21:41:20.204Z,6.80
2023-02-03T21:43:50.417Z,10.93
2023-02-03T21:46:19.069Z,6.10
2023-02-03T21:48:50.578Z,6.93
2023-02-03T21:51:20.587Z,7.75
2023-02-03T21:53:54.986Z,7.70
2023-02-03T21:56:25.515Z,8.23
2023-02-03T21:58:57.278Z,9.38
2023-02-03T22:01:26.138Z,5.72
2023-02-03T22:03:54.534Z,8.15
2023-02-03T22:06:24.385Z,8.88
2023-02-03T22:08:53.345Z,8.15
2023-02-03T22:11:22.080Z,13.35
2023-02-03T22:13:51.382Z,8.77
2023-02-03T22:16:19.405Z,12.27
2023-02-03T22:18:47.659Z,13.30
2023-02-03T22:21:15.723Z,10.13
2023-02-03T22:23:43.646Z,12.85
2023-02-03T22:26:12.007Z,10.82
2023-02-03T22:28:40.014Z,10.63
2023-02-03T22:31:09.488Z,9.73
2023-02-03T22:33:37.465Z,10.02
2023-02-03T22:36:06.613Z,8.85
2023-02-03T22:38:34.550Z,8.85
2023-02-03T22:41:02.517Z,8.98
2023-02-03T22:43:31.265Z,14.98
2023-02-03T22:46:01.559Z,11.48
2023-02-03T22:48:30.858Z,11.82
2023-02-03T22:50:59.168Z,7.47
2023-02-03T22:53:27.136Z,7.15
2023-02-03T22:55:55.087Z,8.75
2023-02-03T22:58:22.928Z,11.70
2023-02-03T23:00:50.958Z,9.43
2023-02-03T23:03:18.838Z,8.52
2023-02-03T23:05:48.083Z,9.82
2023-02-03T23:08:16.062Z,8.77
2023-02-03T23:10:44.096Z,7.95
2023-02-03T23:13:11.997Z,8.15
2023-02-03T23:15:39.933Z,11.25
2023-02-03T23:18:07.824Z,9.50
2023-02-03T23:20:35.676Z,10.93
2023-02-03T23:23:04.951Z,8.75
2023-02-03T23:25:32.924Z,8.00
2023-02-03T23:28:00.810Z,9.20
2023-02-03T23:30:28.913Z,8.43
2023-02-03T23:32:56.973Z,9.10
2023-02-03T23:35:42.414Z,8.90
2023-02-03T23:38:11.679Z,7.32
2023-02-03T23:40:39.556Z,9.13
2023-02-03T23:43:07.442Z,9.10
2023-02-03T23:45:35.324Z,8.02
2023-02-03T23:48:03.205Z,6.90
2023-02-03T23:50:31.499Z,6.95
2023-02-03T23:52:59.706Z,9.35
2023-02-03T23:55:29.300Z,7.68
2023-02-03T23:57:57.180Z,8.52
